Terminal Aerodrome Forecast
Issued by NWS

Home | Current Version | Previous Version | Text Only | Print | Product List | Glossary On
Versions: 1 2 3 4 5 6 7 8 9 10 11 12 13
000
FTUS45 KPIH 251100
TAFSUN
TAF
KSUN 251120Z 2512/2612 32012G19KT P6SM VCSH SCT035 OVC050
     FM251900 31010KT P6SM SCT045 BKN080
     FM260200 31008KT P6SM SCT080
      AMD LTD TO CLD VIS AND WIND TIL 251400=

USA.gov is the U.S. government's official web portal to all federal, state and local government web resources and services.